sensor_id;sensor_type;location;lat;lon;timestamp;temperature;humidity
40600;DHT22;26309;50.924;4.754;2023-06-10T00:00:40;20.70;96.30
40600;DHT22;26309;50.924;4.754;2023-06-10T00:03:09;20.70;96.30
40600;DHT22;26309;50.924;4.754;2023-06-10T00:05:36;20.60;96.60
40600;DHT22;26309;50.924;4.754;2023-06-10T00:08:05;20.70;96.10
40600;DHT22;26309;50.924;4.754;2023-06-10T00:10:39;20.60;96.10
40600;DHT22;26309;50.924;4.754;2023-06-10T00:13:06;20.60;96.30
40600;DHT22;26309;50.924;4.754;2023-06-10T00:15:34;20.60;96.30
40600;DHT22;26309;50.924;4.754;2023-06-10T00:18:04;20.60;96.30
40600;DHT22;26309;50.924;4.754;2023-06-10T00:20:30;20.60;96.40
40600;DHT22;26309;50.924;4.754;2023-06-10T00:23:00;20.50;96.60
40600;DHT22;26309;50.924;4.754;2023-06-10T00:25:27;20.40;96.90
40600;DHT22;26309;50.924;4.754;2023-06-10T00:27:52;20.40;97.20
40600;DHT22;26309;50.924;4.754;2023-06-10T00:30:18;20.40;97.00
40600;DHT22;26309;50.924;4.754;2023-06-10T00:32:45;20.40;97.50
40600;DHT22;26309;50.924;4.754;2023-06-10T00:35:11;20.30;97.90
40600;DHT22;26309;50.924;4.754;2023-06-10T00:37:37;20.20;98.50
40600;DHT22;26309;50.924;4.754;2023-06-10T00:40:04;20.10;99.20
40600;DHT22;26309;50.924;4.754;2023-06-10T00:42:31;20.10;99.70
40600;DHT22;26309;50.924;4.754;2023-06-10T00:44:56;20.00;99.80
40600;DHT22;26309;50.924;4.754;2023-06-10T00:47:22;20.00;99.90
40600;DHT22;26309;50.924;4.754;2023-06-10T00:49:50;19.90;99.90
40600;DHT22;26309;50.924;4.754;2023-06-10T00:52:18;19.90;99.90
40600;DHT22;26309;50.924;4.754;2023-06-10T00:54:48;19.80;99.90
40600;DHT22;26309;50.924;4.754;2023-06-10T00:57:14;19.70;99.90
40600;DHT22;26309;50.924;4.754;2023-06-10T00:59:42;19.70;99.90
40600;DHT22;26309;50.924;4.754;2023-06-10T01:02:08;19.70;99.90
40600;DHT22;26309;50.924;4.754;2023-06-10T01:04:34;19.70;99.90
40600;DHT22;26309;50.924;4.754;2023-06-10T01:09:55;19.50;99.90
40600;DHT22;26309;50.924;4.754;2023-06-10T01:12:33;19.40;99.90
40600;DHT22;26309;50.924;4.754;2023-06-10T01:15:01;19.30;99.90
40600;DHT22;26309;50.924;4.754;2023-06-10T01:17:29;19.30;99.90
40600;DHT22;26309;50.924;4.754;2023-06-10T01:19:59;19.20;99.90
40600;DHT22;26309;50.924;4.754;2023-06-10T01:22:26;19.20;99.90
40600;DHT22;26309;50.924;4.754;2023-06-10T01:24:58;19.20;99.90
40600;DHT22;26309;50.924;4.754;2023-06-10T01:27:29;19.10;99.90
40600;DHT22;26309;50.924;4.754;2023-06-10T01:30:02;19.10;99.90
40600;DHT22;26309;50.924;4.754;2023-06-10T01:32:37;19.00;99.90
40600;DHT22;26309;50.924;4.754;2023-06-10T01:35:05;18.90;99.90
40600;DHT22;26309;50.924;4.754;2023-06-10T01:37:33;19.00;99.90
40600;DHT22;26309;50.924;4.754;2023-06-10T01:40:02;18.90;99.90
40600;DHT22;26309;50.924;4.754;2023-06-10T01:42:33;19.00;99.90
40600;DHT22;26309;50.924;4.754;2023-06-10T01:44:59;19.00;99.90
40600;DHT22;26309;50.924;4.754;2023-06-10T01:47:25;19.00;99.90
40600;DHT22;26309;50.924;4.754;2023-06-10T01:49:50;18.90;99.90
40600;DHT22;26309;50.924;4.754;2023-06-10T01:52:16;18.90;99.90
40600;DHT22;26309;50.924;4.754;2023-06-10T01:54:42;18.80;99.90
40600;DHT22;26309;50.924;4.754;2023-06-10T01:57:08;18.80;99.90
40600;DHT22;26309;50.924;4.754;2023-06-10T01:59:34;18.70;99.90
40600;DHT22;26309;50.924;4.754;2023-06-10T02:02:02;18.60;99.90
40600;DHT22;26309;50.924;4.754;2023-06-10T02:04:28;18.60;99.90
40600;DHT22;26309;50.924;4.754;2023-06-10T02:06:54;18.60;99.90
40600;DHT22;26309;50.924;4.754;2023-06-10T02:09:23;18.60;99.90
40600;DHT22;26309;50.924;4.754;2023-06-10T02:11:49;18.50;99.90
40600;DHT22;26309;50.924;4.754;2023-06-10T02:14:16;18.50;99.90
40600;DHT22;26309;50.924;4.754;2023-06-10T02:16:41;18.50;99.90
40600;DHT22;26309;50.924;4.754;2023-06-10T02:19:11;18.50;99.90
40600;DHT22;26309;50.924;4.754;2023-06-10T02:21:38;18.50;99.90
40600;DHT22;26309;50.924;4.754;2023-06-10T02:24:04;18.40;99.90
40600;DHT22;26309;50.924;4.754;2023-06-10T02:26:30;18.50;99.90
40600;DHT22;26309;50.924;4.754;2023-06-10T02:28:56;18.60;99.90
40600;DHT22;26309;50.924;4.754;2023-06-10T02:31:22;18.30;99.90
40600;DHT22;26309;50.924;4.754;2023-06-10T02:33:49;18.30;99.90
40600;DHT22;26309;50.924;4.754;2023-06-10T02:36:15;18.30;99.90
40600;DHT22;26309;50.924;4.754;2023-06-10T02:38:41;18.20;99.90
40600;DHT22;26309;50.924;4.754;2023-06-10T02:41:08;18.30;99.90
40600;DHT22;26309;50.924;4.754;2023-06-10T02:43:33;18.30;99.90
40600;DHT22;26309;50.924;4.754;2023-06-10T02:45:59;18.20;99.90
40600;DHT22;26309;50.924;4.754;2023-06-10T02:48:27;18.20;99.90
40600;DHT22;26309;50.924;4.754;2023-06-10T02:50:53;18.20;99.90
40600;DHT22;26309;50.924;4.754;2023-06-10T02:53:19;18.10;99.90
40600;DHT22;26309;50.924;4.754;2023-06-10T02:55:45;18.20;99.90
40600;DHT22;26309;50.924;4.754;2023-06-10T02:58:11;18.20;99.90
40600;DHT22;26309;50.924;4.754;2023-06-10T03:00:37;18.10;99.90
40600;DHT22;26309;50.924;4.754;2023-06-10T03:03:03;18.00;99.90
40600;DHT22;26309;50.924;4.754;2023-06-10T03:05:31;18.00;99.90
40600;DHT22;26309;50.924;4.754;2023-06-10T03:07:57;17.90;99.90
40600;DHT22;26309;50.924;4.754;2023-06-10T03:10:25;17.80;99.90
40600;DHT22;26309;50.924;4.754;2023-06-10T03:12:51;17.80;99.90
40600;DHT22;26309;50.924;4.754;2023-06-10T03:15:17;17.90;99.90
40600;DHT22;26309;50.924;4.754;2023-06-10T03:17:42;17.90;99.90
40600;DHT22;26309;50.924;4.754;2023-06-10T03:20:12;18.00;99.90
40600;DHT22;26309;50.924;4.754;2023-06-10T03:22:41;17.90;99.90
40600;DHT22;26309;50.924;4.754;2023-06-10T03:25:07;17.80;99.90
40600;DHT22;26309;50.924;4.754;2023-06-10T03:27:38;17.70;99.90
40600;DHT22;26309;50.924;4.754;2023-06-10T03:30:04;17.80;99.90
40600;DHT22;26309;50.924;4.754;2023-06-10T03:32:33;17.80;99.90
40600;DHT22;26309;50.924;4.754;2023-06-10T03:34:59;17.70;99.90
40600;DHT22;26309;50.924;4.754;2023-06-10T03:37:25;17.60;99.90
40600;DHT22;26309;50.924;4.754;2023-06-10T03:39:51;17.70;99.90
40600;DHT22;26309;50.924;4.754;2023-06-10T03:42:16;17.70;99.90
40600;DHT22;26309;50.924;4.754;2023-06-10T03:44:42;17.60;99.90
40600;DHT22;26309;50.924;4.754;2023-06-10T03:47:09;17.70;99.90
40600;DHT22;26309;50.924;4.754;2023-06-10T03:49:35;17.70;99.90
40600;DHT22;26309;50.924;4.754;2023-06-10T03:52:02;17.70;99.90
40600;DHT22;26309;50.924;4.754;2023-06-10T03:54:28;17.80;99.90
40600;DHT22;26309;50.924;4.754;2023-06-10T03:56:54;18.00;99.90
40600;DHT22;26309;50.924;4.754;2023-06-10T03:59:20;18.00;99.90
40600;DHT22;26309;50.924;4.754;2023-06-10T04:01:46;18.00;99.90
40600;DHT22;26309;50.924;4.754;2023-06-10T04:04:14;17.90;99.90
40600;DHT22;26309;50.924;4.754;2023-06-10T04:06:42;17.90;99.90
40600;DHT22;26309;50.924;4.754;2023-06-10T04:09:09;18.00;99.90
40600;DHT22;26309;50.924;4.754;2023-06-10T04:11:36;17.90;99.90
40600;DHT22;26309;50.924;4.754;2023-06-10T04:14:02;17.90;99.90
40600;DHT22;26309;50.924;4.754;2023-06-10T04:16:28;18.00;99.90
40600;DHT22;26309;50.924;4.754;2023-06-10T04:18:54;18.10;99.90
40600;DHT22;26309;50.924;4.754;2023-06-10T04:21:21;18.40;99.90
40600;DHT22;26309;50.924;4.754;2023-06-10T04:23:47;18.50;99.90
40600;DHT22;26309;50.924;4.754;2023-06-10T04:26:14;18.60;99.90
40600;DHT22;26309;50.924;4.754;2023-06-10T04:28:39;18.70;99.90
40600;DHT22;26309;50.924;4.754;2023-06-10T04:31:05;18.70;99.90
40600;DHT22;26309;50.924;4.754;2023-06-10T04:33:31;18.80;99.90
40600;DHT22;26309;50.924;4.754;2023-06-10T04:35:57;18.90;99.90
40600;DHT22;26309;50.924;4.754;2023-06-10T04:38:23;19.10;99.90
40600;DHT22;26309;50.924;4.754;2023-06-10T04:40:49;19.20;99.90
40600;DHT22;26309;50.924;4.754;2023-06-10T04:43:15;19.30;99.90
40600;DHT22;26309;50.924;4.754;2023-06-10T04:45:41;19.30;99.90
40600;DHT22;26309;50.924;4.754;2023-06-10T04:48:10;19.30;99.90
40600;DHT22;26309;50.924;4.754;2023-06-10T04:50:37;19.40;99.90
40600;DHT22;26309;50.924;4.754;2023-06-10T04:53:02;20.10;99.90
40600;DHT22;26309;50.924;4.754;2023-06-10T04:55:28;20.90;99.90
40600;DHT22;26309;50.924;4.754;2023-06-10T04:57:55;21.60;99.90
40600;DHT22;26309;50.924;4.754;2023-06-10T05:00:21;22.20;99.90
40600;DHT22;26309;50.924;4.754;2023-06-10T05:02:46;22.80;99.90
40600;DHT22;26309;50.924;4.754;2023-06-10T05:05:19;23.30;99.90
40600;DHT22;26309;50.924;4.754;2023-06-10T05:07:45;23.70;99.90
40600;DHT22;26309;50.924;4.754;2023-06-10T05:10:11;23.90;99.90
40600;DHT22;26309;50.924;4.754;2023-06-10T05:12:41;24.30;99.80
40600;DHT22;26309;50.924;4.754;2023-06-10T05:15:07;24.50;98.80
40600;DHT22;26309;50.924;4.754;2023-06-10T05:17:33;24.40;99.30
40600;DHT22;26309;50.924;4.754;2023-06-10T05:20:01;24.60;98.80
40600;DHT22;26309;50.924;4.754;2023-06-10T05:22:27;24.40;98.70
40600;DHT22;26309;50.924;4.754;2023-06-10T05:24:53;24.50;98.50
40600;DHT22;26309;50.924;4.754;2023-06-10T05:27:19;24.70;98.30
40600;DHT22;26309;50.924;4.754;2023-06-10T05:29:45;24.50;97.60
40600;DHT22;26309;50.924;4.754;2023-06-10T05:32:12;24.10;98.20
40600;DHT22;26309;50.924;4.754;2023-06-10T05:34:37;24.10;98.50
40600;DHT22;26309;50.924;4.754;2023-06-10T05:37:04;24.10;99.30
40600;DHT22;26309;50.924;4.754;2023-06-10T05:39:30;24.30;99.10
40600;DHT22;26309;50.924;4.754;2023-06-10T05:41:56;24.50;97.50
40600;DHT22;26309;50.924;4.754;2023-06-10T05:44:24;24.40;98.40
40600;DHT22;26309;50.924;4.754;2023-06-10T05:46:50;24.50;98.50
40600;DHT22;26309;50.924;4.754;2023-06-10T05:49:16;24.40;97.40
40600;DHT22;26309;50.924;4.754;2023-06-10T05:51:42;24.50;97.50
40600;DHT22;26309;50.924;4.754;2023-06-10T05:54:08;24.30;98.10
40600;DHT22;26309;50.924;4.754;2023-06-10T05:56:34;24.20;98.40
40600;DHT22;26309;50.924;4.754;2023-06-10T05:59:00;24.10;98.20
40600;DHT22;26309;50.924;4.754;2023-06-10T06:01:25;24.40;98.30
40600;DHT22;26309;50.924;4.754;2023-06-10T06:03:54;24.40;98.20
40600;DHT22;26309;50.924;4.754;2023-06-10T06:06:20;24.60;98.10
40600;DHT22;26309;50.924;4.754;2023-06-10T06:08:46;24.80;96.70
40600;DHT22;26309;50.924;4.754;2023-06-10T06:11:12;24.50;96.80
40600;DHT22;26309;50.924;4.754;2023-06-10T06:13:39;24.40;97.30
40600;DHT22;26309;50.924;4.754;2023-06-10T06:16:05;24.40;97.50
40600;DHT22;26309;50.924;4.754;2023-06-10T06:18:32;24.40;97.00
40600;DHT22;26309;50.924;4.754;2023-06-10T06:20:58;24.40;96.90
40600;DHT22;26309;50.924;4.754;2023-06-10T06:23:23;24.70;97.00
40600;DHT22;26309;50.924;4.754;2023-06-10T06:25:50;24.80;96.40
40600;DHT22;26309;50.924;4.754;2023-06-10T06:28:15;24.90;96.10
40600;DHT22;26309;50.924;4.754;2023-06-10T06:30:41;24.90;96.70
40600;DHT22;26309;50.924;4.754;2023-06-10T06:33:07;24.90;96.30
40600;DHT22;26309;50.924;4.754;2023-06-10T06:35:33;25.00;96.60
40600;DHT22;26309;50.924;4.754;2023-06-10T06:37:59;24.90;95.80
40600;DHT22;26309;50.924;4.754;2023-06-10T06:40:25;25.10;96.30
40600;DHT22;26309;50.924;4.754;2023-06-10T06:42:51;25.20;95.50
40600;DHT22;26309;50.924;4.754;2023-06-10T06:45:17;25.10;95.60
40600;DHT22;26309;50.924;4.754;2023-06-10T06:47:43;24.90;95.80
40600;DHT22;26309;50.924;4.754;2023-06-10T06:50:10;25.00;95.10
40600;DHT22;26309;50.924;4.754;2023-06-10T06:52:36;25.10;94.80
40600;DHT22;26309;50.924;4.754;2023-06-10T06:55:02;25.20;94.50
40600;DHT22;26309;50.924;4.754;2023-06-10T06:57:28;25.30;94.50
40600;DHT22;26309;50.924;4.754;2023-06-10T06:59:54;25.30;95.20
40600;DHT22;26309;50.924;4.754;2023-06-10T07:02:20;25.40;94.20
40600;DHT22;26309;50.924;4.754;2023-06-10T07:04:46;25.50;94.90
40600;DHT22;26309;50.924;4.754;2023-06-10T07:07:14;25.50;94.00
40600;DHT22;26309;50.924;4.754;2023-06-10T07:09:40;25.20;94.60
40600;DHT22;26309;50.924;4.754;2023-06-10T07:12:07;25.10;95.10
40600;DHT22;26309;50.924;4.754;2023-06-10T07:14:33;25.20;95.50
40600;DHT22;26309;50.924;4.754;2023-06-10T07:16:59;25.50;94.70
40600;DHT22;26309;50.924;4.754;2023-06-10T07:19:25;25.80;94.60
40600;DHT22;26309;50.924;4.754;2023-06-10T07:21:50;25.90;94.40
40600;DHT22;26309;50.924;4.754;2023-06-10T07:24:16;26.10;93.70
40600;DHT22;26309;50.924;4.754;2023-06-10T07:26:42;26.20;92.50
40600;DHT22;26309;50.924;4.754;2023-06-10T07:29:08;26.10;92.40
40600;DHT22;26309;50.924;4.754;2023-06-10T07:31:34;26.40;92.70
40600;DHT22;26309;50.924;4.754;2023-06-10T07:34:00;26.60;91.10
40600;DHT22;26309;50.924;4.754;2023-06-10T07:36:26;26.50;91.10
40600;DHT22;26309;50.924;4.754;2023-06-10T07:38:54;26.70;90.60
40600;DHT22;26309;50.924;4.754;2023-06-10T07:41:22;26.80;91.90
40600;DHT22;26309;50.924;4.754;2023-06-10T07:43:48;26.90;92.00
40600;DHT22;26309;50.924;4.754;2023-06-10T07:46:20;27.20;90.90
40600;DHT22;26309;50.924;4.754;2023-06-10T07:48:47;27.40;90.40
40600;DHT22;26309;50.924;4.754;2023-06-10T07:51:15;27.20;91.10
40600;DHT22;26309;50.924;4.754;2023-06-10T07:53:41;27.10;91.50
40600;DHT22;26309;50.924;4.754;2023-06-10T07:56:07;27.20;91.00
40600;DHT22;26309;50.924;4.754;2023-06-10T07:58:33;27.30;90.60
40600;DHT22;26309;50.924;4.754;2023-06-10T08:00:59;27.20;90.40
40600;DHT22;26309;50.924;4.754;2023-06-10T08:03:25;27.30;91.90
40600;DHT22;26309;50.924;4.754;2023-06-10T08:05:51;27.40;91.40
40600;DHT22;26309;50.924;4.754;2023-06-10T08:08:16;27.70;89.60
40600;DHT22;26309;50.924;4.754;2023-06-10T08:10:42;27.90;84.50
40600;DHT22;26309;50.924;4.754;2023-06-10T08:13:08;28.20;83.80
40600;DHT22;26309;50.924;4.754;2023-06-10T08:15:34;28.30;82.30
40600;DHT22;26309;50.924;4.754;2023-06-10T08:18:00;28.50;81.90
40600;DHT22;26309;50.924;4.754;2023-06-10T08:20:26;28.60;82.40
40600;DHT22;26309;50.924;4.754;2023-06-10T08:22:52;28.40;82.00
40600;DHT22;26309;50.924;4.754;2023-06-10T08:25:18;28.40;79.90
40600;DHT22;26309;50.924;4.754;2023-06-10T08:27:44;28.40;81.90
40600;DHT22;26309;50.924;4.754;2023-06-10T08:30:11;28.60;82.10
40600;DHT22;26309;50.924;4.754;2023-06-10T08:32:38;28.50;80.00
40600;DHT22;26309;50.924;4.754;2023-06-10T08:35:04;28.50;79.60
40600;DHT22;26309;50.924;4.754;2023-06-10T08:37:31;28.50;80.80
40600;DHT22;26309;50.924;4.754;2023-06-10T08:39:57;28.70;78.50
40600;DHT22;26309;50.924;4.754;2023-06-10T08:42:36;28.60;78.10
40600;DHT22;26309;50.924;4.754;2023-06-10T08:45:05;28.50;77.40
40600;DHT22;26309;50.924;4.754;2023-06-10T08:47:35;28.40;78.90
40600;DHT22;26309;50.924;4.754;2023-06-10T08:50:03;28.60;78.00
40600;DHT22;26309;50.924;4.754;2023-06-10T08:52:35;28.90;78.00
40600;DHT22;26309;50.924;4.754;2023-06-10T08:55:15;28.80;78.00
40600;DHT22;26309;50.924;4.754;2023-06-10T08:57:41;28.40;77.40
40600;DHT22;26309;50.924;4.754;2023-06-10T09:00:10;28.10;80.80
40600;DHT22;26309;50.924;4.754;2023-06-10T09:02:38;28.50;79.80
40600;DHT22;26309;50.924;4.754;2023-06-10T09:05:04;28.70;77.00
40600;DHT22;26309;50.924;4.754;2023-06-10T09:07:31;29.00;73.80
40600;DHT22;26309;50.924;4.754;2023-06-10T09:09:57;29.30;71.40
40600;DHT22;26309;50.924;4.754;2023-06-10T09:12:24;29.30;74.00
40600;DHT22;26309;50.924;4.754;2023-06-10T09:14:50;28.90;76.30
40600;DHT22;26309;50.924;4.754;2023-06-10T09:17:17;29.00;77.10
40600;DHT22;26309;50.924;4.754;2023-06-10T09:19:44;29.00;73.50
40600;DHT22;26309;50.924;4.754;2023-06-10T09:22:11;29.10;72.00
40600;DHT22;26309;50.924;4.754;2023-06-10T09:24:37;29.40;75.80
40600;DHT22;26309;50.924;4.754;2023-06-10T09:27:04;29.70;73.70
40600;DHT22;26309;50.924;4.754;2023-06-10T09:29:50;29.40;73.80
40600;DHT22;26309;50.924;4.754;2023-06-10T09:32:20;29.50;71.20
40600;DHT22;26309;50.924;4.754;2023-06-10T09:34:47;29.30;73.00
40600;DHT22;26309;50.924;4.754;2023-06-10T09:37:19;29.50;71.60
40600;DHT22;26309;50.924;4.754;2023-06-10T09:40:02;29.40;69.20
40600;DHT22;26309;50.924;4.754;2023-06-10T09:42:32;29.40;71.50
40600;DHT22;26309;50.924;4.754;2023-06-10T09:44:59;29.30;71.80
40600;DHT22;26309;50.924;4.754;2023-06-10T09:47:25;29.40;68.90
40600;DHT22;26309;50.924;4.754;2023-06-10T09:49:51;29.60;70.40
40600;DHT22;26309;50.924;4.754;2023-06-10T09:52:27;29.60;67.00
40600;DHT22;26309;50.924;4.754;2023-06-10T09:54:58;29.80;66.30
40600;DHT22;26309;50.924;4.754;2023-06-10T09:57:25;29.60;71.80
40600;DHT22;26309;50.924;4.754;2023-06-10T09:59:54;29.70;69.60
40600;DHT22;26309;50.924;4.754;2023-06-10T10:02:21;29.90;70.10
40600;DHT22;26309;50.924;4.754;2023-06-10T10:04:47;30.00;62.30
40600;DHT22;26309;50.924;4.754;2023-06-10T10:07:13;30.10;64.90
40600;DHT22;26309;50.924;4.754;2023-06-10T10:09:43;30.20;64.00
40600;DHT22;26309;50.924;4.754;2023-06-10T10:12:10;30.30;65.00
40600;DHT22;26309;50.924;4.754;2023-06-10T10:14:37;30.10;64.40
40600;DHT22;26309;50.924;4.754;2023-06-10T10:17:09;29.90;66.00
40600;DHT22;26309;50.924;4.754;2023-06-10T10:19:50;29.80;61.10
40600;DHT22;26309;50.924;4.754;2023-06-10T10:22:26;29.90;59.30
40600;DHT22;26309;50.924;4.754;2023-06-10T10:24:56;29.70;59.80
40600;DHT22;26309;50.924;4.754;2023-06-10T10:27:38;29.50;59.70
40600;DHT22;26309;50.924;4.754;2023-06-10T10:30:06;29.50;62.00
40600;DHT22;26309;50.924;4.754;2023-06-10T10:32:42;29.70;60.50
40600;DHT22;26309;50.924;4.754;2023-06-10T10:35:16;29.70;63.30
40600;DHT22;26309;50.924;4.754;2023-06-10T10:37:44;29.70;56.70
40600;DHT22;26309;50.924;4.754;2023-06-10T10:40:11;29.90;56.20
40600;DHT22;26309;50.924;4.754;2023-06-10T10:42:38;30.40;57.00
40600;DHT22;26309;50.924;4.754;2023-06-10T10:45:05;30.60;55.70
40600;DHT22;26309;50.924;4.754;2023-06-10T10:47:33;30.80;57.40
40600;DHT22;26309;50.924;4.754;2023-06-10T10:50:01;31.00;55.10
40600;DHT22;26309;50.924;4.754;2023-06-10T10:53:07;31.10;54.30
40600;DHT22;26309;50.924;4.754;2023-06-10T10:55:33;31.10;55.20
40600;DHT22;26309;50.924;4.754;2023-06-10T11:00:34;30.70;54.00
40600;DHT22;26309;50.924;4.754;2023-06-10T11:05:43;30.30;57.20
40600;DHT22;26309;50.924;4.754;2023-06-10T11:11:24;30.60;53.20
40600;DHT22;26309;50.924;4.754;2023-06-10T11:16:28;31.10;52.80
40600;DHT22;26309;50.924;4.754;2023-06-10T11:18:55;31.30;52.20
40600;DHT22;26309;50.924;4.754;2023-06-10T11:21:25;31.60;52.30
40600;DHT22;26309;50.924;4.754;2023-06-10T11:23:51;31.40;52.90
40600;DHT22;26309;50.924;4.754;2023-06-10T11:31:26;31.40;48.50
40600;DHT22;26309;50.924;4.754;2023-06-10T11:33:59;31.10;52.00
40600;DHT22;26309;50.924;4.754;2023-06-10T11:36:26;31.20;53.90
40600;DHT22;26309;50.924;4.754;2023-06-10T11:38:58;30.70;54.50
40600;DHT22;26309;50.924;4.754;2023-06-10T11:41:25;30.20;52.30
40600;DHT22;26309;50.924;4.754;2023-06-10T11:43:56;30.50;53.20
40600;DHT22;26309;50.924;4.754;2023-06-10T11:46:22;30.70;51.00
40600;DHT22;26309;50.924;4.754;2023-06-10T11:48:52;30.50;51.20
40600;DHT22;26309;50.924;4.754;2023-06-10T11:51:19;30.40;52.20
40600;DHT22;26309;50.924;4.754;2023-06-10T11:53:46;30.40;52.90
40600;DHT22;26309;50.924;4.754;2023-06-10T11:56:12;30.50;49.30
40600;DHT22;26309;50.924;4.754;2023-06-10T11:58:43;30.50;49.80
40600;DHT22;26309;50.924;4.754;2023-06-10T12:01:10;30.60;46.20
40600;DHT22;26309;50.924;4.754;2023-06-10T12:03:37;30.70;48.40
40600;DHT22;26309;50.924;4.754;2023-06-10T12:06:06;31.00;49.30
40600;DHT22;26309;50.924;4.754;2023-06-10T12:08:34;31.40;47.90
40600;DHT22;26309;50.924;4.754;2023-06-10T12:11:06;31.70;46.10
40600;DHT22;26309;50.924;4.754;2023-06-10T12:13:32;31.40;43.30
40600;DHT22;26309;50.924;4.754;2023-06-10T12:16:10;31.40;43.90
40600;DHT22;26309;50.924;4.754;2023-06-10T12:18:36;31.30;45.90
40600;DHT22;26309;50.924;4.754;2023-06-10T12:21:02;31.20;44.30
40600;DHT22;26309;50.924;4.754;2023-06-10T12:23:29;31.10;45.60
40600;DHT22;26309;50.924;4.754;2023-06-10T12:25:55;31.00;45.20
40600;DHT22;26309;50.924;4.754;2023-06-10T12:28:24;31.10;46.70
40600;DHT22;26309;50.924;4.754;2023-06-10T12:30:51;31.30;45.80
40600;DHT22;26309;50.924;4.754;2023-06-10T12:33:21;31.20;45.60
40600;DHT22;26309;50.924;4.754;2023-06-10T12:35:51;31.40;43.90
40600;DHT22;26309;50.924;4.754;2023-06-10T12:38:24;31.40;46.10
40600;DHT22;26309;50.924;4.754;2023-06-10T12:40:53;31.40;45.60
40600;DHT22;26309;50.924;4.754;2023-06-10T12:43:25;31.20;44.40
40600;DHT22;26309;50.924;4.754;2023-06-10T12:45:51;30.70;48.80
40600;DHT22;26309;50.924;4.754;2023-06-10T12:48:22;30.80;46.70
40600;DHT22;26309;50.924;4.754;2023-06-10T12:53:19;31.30;47.90
40600;DHT22;26309;50.924;4.754;2023-06-10T12:55:46;31.40;46.20
40600;DHT22;26309;50.924;4.754;2023-06-10T12:58:13;31.30;45.80
40600;DHT22;26309;50.924;4.754;2023-06-10T13:00:39;31.40;46.60
40600;DHT22;26309;50.924;4.754;2023-06-10T13:03:10;31.40;45.90
40600;DHT22;26309;50.924;4.754;2023-06-10T13:05:37;31.40;46.70
40600;DHT22;26309;50.924;4.754;2023-06-10T13:08:05;31.50;45.00
40600;DHT22;26309;50.924;4.754;2023-06-10T13:10:32;31.40;46.80
40600;DHT22;26309;50.924;4.754;2023-06-10T13:13:00;31.50;48.30
40600;DHT22;26309;50.924;4.754;2023-06-10T13:15:27;31.30;47.20
40600;DHT22;26309;50.924;4.754;2023-06-10T13:17:53;31.30;45.90
40600;DHT22;26309;50.924;4.754;2023-06-10T13:20:19;31.40;46.40
40600;DHT22;26309;50.924;4.754;2023-06-10T13:22:46;31.60;45.80
40600;DHT22;26309;50.924;4.754;2023-06-10T13:25:13;31.40;44.50
40600;DHT22;26309;50.924;4.754;2023-06-10T13:27:39;31.00;45.70
40600;DHT22;26309;50.924;4.754;2023-06-10T13:30:06;30.80;43.70
40600;DHT22;26309;50.924;4.754;2023-06-10T13:32:32;31.00;45.40
40600;DHT22;26309;50.924;4.754;2023-06-10T13:34:58;31.30;45.00
40600;DHT22;26309;50.924;4.754;2023-06-10T13:37:24;31.60;46.00
40600;DHT22;26309;50.924;4.754;2023-06-10T13:39:50;31.70;47.90
40600;DHT22;26309;50.924;4.754;2023-06-10T13:42:20;31.80;44.90
40600;DHT22;26309;50.924;4.754;2023-06-10T13:44:47;31.90;45.60
40600;DHT22;26309;50.924;4.754;2023-06-10T13:47:17;31.80;44.20
40600;DHT22;26309;50.924;4.754;2023-06-10T13:49:43;32.00;42.90
40600;DHT22;26309;50.924;4.754;2023-06-10T13:52:08;32.10;44.40
40600;DHT22;26309;50.924;4.754;2023-06-10T13:54:34;31.90;45.00
40600;DHT22;26309;50.924;4.754;2023-06-10T13:57:04;31.90;44.90
40600;DHT22;26309;50.924;4.754;2023-06-10T13:59:30;32.30;44.40
40600;DHT22;26309;50.924;4.754;2023-06-10T14:01:56;32.50;42.40
40600;DHT22;26309;50.924;4.754;2023-06-10T14:04:22;32.80;43.60
40600;DHT22;26309;50.924;4.754;2023-06-10T14:06:48;32.60;44.70
40600;DHT22;26309;50.924;4.754;2023-06-10T14:09:14;32.60;43.50
40600;DHT22;26309;50.924;4.754;2023-06-10T14:11:40;32.50;45.70
40600;DHT22;26309;50.924;4.754;2023-06-10T14:14:06;32.00;41.80
40600;DHT22;26309;50.924;4.754;2023-06-10T14:16:32;32.00;42.70
40600;DHT22;26309;50.924;4.754;2023-06-10T14:18:58;32.00;42.00
40600;DHT22;26309;50.924;4.754;2023-06-10T14:21:24;32.20;41.60
40600;DHT22;26309;50.924;4.754;2023-06-10T14:23:50;32.80;46.40
40600;DHT22;26309;50.924;4.754;2023-06-10T14:26:17;33.20;41.20
40600;DHT22;26309;50.924;4.754;2023-06-10T14:28:44;33.10;41.30
40600;DHT22;26309;50.924;4.754;2023-06-10T14:31:10;32.80;42.90
40600;DHT22;26309;50.924;4.754;2023-06-10T14:33:36;33.00;41.60
40600;DHT22;26309;50.924;4.754;2023-06-10T14:36:02;32.60;41.50
40600;DHT22;26309;50.924;4.754;2023-06-10T14:38:28;32.80;40.20
40600;DHT22;26309;50.924;4.754;2023-06-10T14:40:55;33.10;40.80
40600;DHT22;26309;50.924;4.754;2023-06-10T14:43:21;33.10;38.70
40600;DHT22;26309;50.924;4.754;2023-06-10T14:45:47;33.00;39.90
40600;DHT22;26309;50.924;4.754;2023-06-10T14:48:13;32.90;40.50
40600;DHT22;26309;50.924;4.754;2023-06-10T14:50:39;33.30;41.00
40600;DHT22;26309;50.924;4.754;2023-06-10T14:53:06;33.40;39.10
40600;DHT22;26309;50.924;4.754;2023-06-10T14:55:32;33.10;40.50
40600;DHT22;26309;50.924;4.754;2023-06-10T14:57:58;32.80;42.40
40600;DHT22;26309;50.924;4.754;2023-06-10T15:00:24;32.90;41.20
40600;DHT22;26309;50.924;4.754;2023-06-10T15:02:51;32.90;41.50
40600;DHT22;26309;50.924;4.754;2023-06-10T15:05:17;33.00;41.30
40600;DHT22;26309;50.924;4.754;2023-06-10T15:07:45;33.00;41.00
40600;DHT22;26309;50.924;4.754;2023-06-10T15:10:11;33.10;42.40
40600;DHT22;26309;50.924;4.754;2023-06-10T15:12:37;33.60;41.20
40600;DHT22;26309;50.924;4.754;2023-06-10T15:15:04;33.60;41.10
40600;DHT22;26309;50.924;4.754;2023-06-10T15:17:30;33.30;41.00
40600;DHT22;26309;50.924;4.754;2023-06-10T15:19:58;33.50;41.00
40600;DHT22;26309;50.924;4.754;2023-06-10T15:22:24;33.90;40.10
40600;DHT22;26309;50.924;4.754;2023-06-10T15:24:50;33.70;41.30
40600;DHT22;26309;50.924;4.754;2023-06-10T15:27:19;33.80;41.10
40600;DHT22;26309;50.924;4.754;2023-06-10T15:29:45;33.70;39.50
40600;DHT22;26309;50.924;4.754;2023-06-10T15:32:11;33.80;40.00
40600;DHT22;26309;50.924;4.754;2023-06-10T15:34:37;34.00;40.10
40600;DHT22;26309;50.924;4.754;2023-06-10T15:37:03;34.50;40.00
40600;DHT22;26309;50.924;4.754;2023-06-10T15:39:29;34.70;37.40
40600;DHT22;26309;50.924;4.754;2023-06-10T15:41:56;34.70;38.20
40600;DHT22;26309;50.924;4.754;2023-06-10T15:44:23;34.40;38.50
40600;DHT22;26309;50.924;4.754;2023-06-10T15:46:48;33.90;37.60
40600;DHT22;26309;50.924;4.754;2023-06-10T15:49:16;34.00;38.60
40600;DHT22;26309;50.924;4.754;2023-06-10T15:51:41;34.10;37.90